Kalamata, Greece

12:41 AM EET on March 06, 2015 (GMT +0200)
Kalamata Air Base | Change Station
CLOSE
Current Station
Airport
Location: Kalamata,
Elevation: 26 ft
Nearby Weather Stations
Active Advisory: Thunderstorms

Elev 26 ft 37.07 °N, 22.03 °E | Updated 51 minutes ago

Light Rain
Light Rain
59 °F
Feels Like 59 °F
N
14
Wind Variable Wind from SSE

Today
High -- | Low -- °F
--% Chance of Precip.
Yesterday
High -- | Low -- °F
Precip. -- in
6:56 AM 6:30 PM
Full, 100% visible
Pressure 30.01 in
Visibility 6.2 miles
Clouds Scattered Clouds 3000 ft
Overcast 8000 ft
Dew Point 55 °F
Humidity 88%
Rainfall 0.00 in
Snow Depth Not available.
UV 0 out of 12
Pollen Not available.
Air Quality Not available.
Flu Activity Not available.
METAR LGKL 052150Z 16012KT 9999 -RA SCT030 OVC080 15/13 Q1016

More Conditions Fewer Conditions

Pressure 30.01 in
Visibility 6.2 miles
Clouds Scattered Clouds 3000 ft
Overcast 8000 ft
Dew Point 55 °F
Humidity 88%
Rainfall 0.00 in
Snow Depth Not available.
UV 0 out of 12
Pollen Not available.
Air Quality Not available.
Flu Activity Not available.
METAR LGKL 052150Z 16012KT 9999 -RA SCT030 OVC080 15/13 Q1016

More Conditions Fewer Conditions

10-Day Weather Forecast

Almanac

Astronomy

Mar. 06, 2015 Rise Set
Actual Time
Civil Twilight
Nautical Twilight
Astronomical Twilight
Moon
Length of Visible Light
Length of Day
Tomorrow will be .
, % of the Moon is Illuminated

Today's Extremes

Country Highs Country Lows

Community

WunderPhotos

Upload Photos

1,803,036 photos uploaded!

WunderBlogs® & News

Nearby

Air Quality

  Air Quality AQ Index Pollutant
Not available.

Snow Depth

Station Depth Elevation

Earthquake Activity

City Distance Mag. Time & Date
Minimum magnitude displayed is 2.5.

Coastal Water Temperatures

Place Temperature

Nearby Weather Stations